Time;durP1;ratioP1;P1;durP2;ratioP2;P2;SDS_P1;SDS_P2;PMS_P1;PMS_P2;Temp;Humidity;BMP_temperature;BMP_pressure;BME280_temperature;BME280_humidity;BME280_pressure;Samples;Min_cycle;Max_cycle;Signal;HPM_P1;HPM_P2
2024/01/12 00:01:15;;;;;;;45.95;19.08;;;0.90;99.90;;;;;;5053728;28;20223;-62
2024/01/12 00:03:42;;;;;;;41.05;17.65;;;0.90;99.90;;;;;;5055236;28;20612;-61
2024/01/12 00:06:09;;;;;;;44.17;19.17;;;0.90;99.90;;;;;;5055213;28;20198;-62
2024/01/12 00:08:37;;;;;;;51.28;20.17;;;0.90;99.90;;;;;;5055049;28;20194;-61
2024/01/12 00:11:07;;;;;;;46.65;19.88;;;0.90;99.90;;;;;;5054336;28;20206;-62
2024/01/12 00:13:34;;;;;;;43.50;19.38;;;0.90;99.90;;;;;;5053211;28;20204;-63
2024/01/12 00:16:06;;;;;;;43.53;19.38;;;0.90;99.90;;;;;;5052762;28;20211;-62
2024/01/12 00:18:33;;;;;;;40.03;20.23;;;1.00;99.90;;;;;;5052967;28;20300;-62
2024/01/12 00:20:59;;;;;;;44.10;20.55;;;0.90;99.90;;;;;;5052590;28;20668;-62
2024/01/12 00:23:26;;;;;;;47.38;21.48;;;1.00;99.90;;;;;;5053099;28;20201;-61
2024/01/12 00:25:58;;;;;;;46.72;19.58;;;1.00;99.90;;;;;;5052915;28;20210;-61
2024/01/12 00:28:25;;;;;;;39.80;19.60;;;1.00;99.90;;;;;;5054921;28;20231;-61
2024/01/12 00:30:52;;;;;;;40.15;18.95;;;1.00;99.90;;;;;;5057247;28;20223;-61
2024/01/12 00:33:20;;;;;;;42.90;18.48;;;1.00;99.90;;;;;;5058050;28;20231;-61
2024/01/12 00:35:47;;;;;;;37.50;18.27;;;1.00;99.90;;;;;;5058133;28;20197;-63
2024/01/12 00:38:14;;;;;;;32.90;18.38;;;1.00;99.90;;;;;;5057653;28;20218;-62
2024/01/12 00:40:41;;;;;;;30.10;18.15;;;1.00;99.90;;;;;;5057277;28;20197;-61
2024/01/12 00:43:08;;;;;;;38.80;18.88;;;1.10;99.90;;;;;;5057683;28;20222;-61
2024/01/12 00:45:35;;;;;;;34.70;18.52;;;1.10;99.90;;;;;;5057405;28;20578;-62
2024/01/12 00:48:02;;;;;;;44.13;19.10;;;1.00;99.90;;;;;;5057167;28;20204;-61
2024/01/12 00:50:30;;;;;;;37.13;18.85;;;1.10;99.90;;;;;;5056445;28;20566;-62
2024/01/12 00:52:57;;;;;;;36.60;16.25;;;1.10;99.90;;;;;;5056148;28;20217;-61
2024/01/12 00:55:23;;;;;;;39.35;19.35;;;1.00;99.90;;;;;;5056082;28;20576;-61
2024/01/12 00:57:50;;;;;;;39.25;19.05;;;1.00;99.90;;;;;;5056453;28;20222;-61
2024/01/12 01:00:17;;;;;;;37.78;19.40;;;1.10;99.90;;;;;;5056294;28;20205;-61
2024/01/12 01:02:44;;;;;;;43.60;19.23;;;1.10;99.90;;;;;;5055910;28;20226;-61
2024/01/12 01:05:11;;;;;;;40.08;19.30;;;1.10;99.90;;;;;;5056237;28;20202;-62
2024/01/12 01:07:39;;;;;;;39.22;19.02;;;1.00;99.90;;;;;;5055973;28;20197;-60
2024/01/12 01:10:06;;;;;;;38.38;18.35;;;1.10;99.90;;;;;;5056622;28;20208;-61
2024/01/12 01:12:33;;;;;;;37.65;19.48;;;1.10;99.90;;;;;;5056631;28;20308;-61
2024/01/12 01:15:00;;;;;;;45.40;19.85;;;1.10;99.90;;;;;;5056590;28;20202;-61
2024/01/12 01:17:27;;;;;;;47.15;17.98;;;1.10;99.90;;;;;;5056293;28;20223;-61
2024/01/12 01:19:53;;;;;;;45.13;20.45;;;1.10;99.90;;;;;;5056898;28;20568;-61
2024/01/12 01:22:20;;;;;;;44.42;20.10;;;1.10;99.90;;;;;;5056357;28;20572;-61
2024/01/12 01:24:48;;;;;;;44.38;20.35;;;1.10;99.90;;;;;;5056013;28;20206;-61
2024/01/12 01:27:15;;;;;;;41.00;18.90;;;1.10;99.90;;;;;;5056105;28;20202;-60
2024/01/12 01:29:42;;;;;;;44.13;19.48;;;1.10;99.90;;;;;;5056049;28;20202;-62
2024/01/12 01:32:09;;;;;;;41.33;19.58;;;1.10;99.90;;;;;;5055680;28;20232;-61
2024/01/12 01:34:35;;;;;;;38.42;20.55;;;1.10;99.90;;;;;;5055831;28;20296;-61
2024/01/12 01:37:04;;;;;;;35.40;18.30;;;1.10;99.90;;;;;;5055600;28;20211;-61
2024/01/12 01:39:31;;;;;;;48.65;20.17;;;1.10;99.90;;;;;;5055030;28;20232;-60
2024/01/12 01:42:01;;;;;;;44.92;21.80;;;1.10;99.90;;;;;;5055718;28;20229;-62
2024/01/12 01:44:28;;;;;;;43.40;20.75;;;1.10;99.90;;;;;;5055663;28;20695;-62
2024/01/12 01:46:56;;;;;;;41.92;19.38;;;1.10;99.90;;;;;;5055588;28;20709;-62
2024/01/12 01:49:24;;;;;;;45.78;19.23;;;1.10;99.90;;;;;;5055766;28;20202;-62
2024/01/12 01:51:51;;;;;;;37.13;17.92;;;1.10;99.90;;;;;;5055563;28;20217;-62
2024/01/12 01:54:19;;;;;;;44.05;21.85;;;1.10;99.90;;;;;;5055461;28;20197;-62
2024/01/12 01:56:47;;;;;;;51.20;20.73;;;1.10;99.90;;;;;;5055720;28;20289;-60
2024/01/12 01:59:16;;;;;;;53.63;21.02;;;1.10;99.90;;;;;;5055508;28;20231;-61
2024/01/12 02:01:44;;;;;;;42.47;19.58;;;1.10;99.90;;;;;;5055168;28;20240;-61
2024/01/12 02:04:12;;;;;;;45.95;20.38;;;1.10;99.90;;;;;;5055338;28;20209;-60
2024/01/12 02:06:39;;;;;;;46.58;20.48;;;1.10;99.90;;;;;;5054879;28;20679;-62
2024/01/12 02:09:07;;;;;;;52.13;20.45;;;1.10;99.90;;;;;;5055303;28;20207;-61
2024/01/12 02:11:34;;;;;;;46.63;19.65;;;1.10;99.90;;;;;;5055120;28;20333;-61
2024/01/12 02:14:06;;;;;;;40.35;19.50;;;1.10;99.90;;;;;;5055076;28;20198;-62
2024/01/12 02:16:34;;;;;;;40.13;20.65;;;1.10;99.90;;;;;;5055161;28;20186;-61
2024/01/12 02:19:01;;;;;;;48.65;21.80;;;1.10;99.90;;;;;;5054910;28;20707;-60
2024/01/12 02:21:30;;;;;;;37.25;16.85;;;1.10;99.90;;;;;;5055063;28;20217;-61
2024/01/12 02:23:57;;;;;;;46.38;20.92;;;1.10;99.90;;;;;;5054892;28;20209;-61
2024/01/12 02:26:24;;;;;;;47.08;18.33;;;1.10;99.90;;;;;;5054521;28;20204;-61
2024/01/12 02:28:50;;;;;;;41.22;17.23;;;1.10;99.90;;;;;;5054251;28;20687;-61
2024/01/12 02:31:17;;;;;;;52.35;19.50;;;1.10;99.90;;;;;;5054339;28;20232;-62
2024/01/12 02:33:47;;;;;;;50.30;20.20;;;1.10;99.90;;;;;;5054406;28;20206;-61
2024/01/12 02:36:14;;;;;;;45.42;18.95;;;1.10;99.90;;;;;;5054888;28;20201;-61
2024/01/12 02:38:42;;;;;;;37.22;18.05;;;1.10;99.90;;;;;;5054942;28;20221;-61
2024/01/12 02:41:09;;;;;;;44.97;20.17;;;1.10;99.90;;;;;;5054881;28;20208;-60
2024/01/12 02:43:36;;;;;;;49.88;20.10;;;1.10;99.90;;;;;;5053869;28;20252;-62
2024/01/12 02:46:03;;;;;;;54.00;19.90;;;1.10;99.90;;;;;;5054111;28;20205;-61
2024/01/12 02:48:29;;;;;;;46.22;18.27;;;1.10;99.90;;;;;;5053799;28;20201;-62
2024/01/12 02:50:56;;;;;;;42.35;16.33;;;1.10;99.90;;;;;;5053227;28;20205;-62
2024/01/12 02:53:23;;;;;;;46.05;20.27;;;1.10;99.90;;;;;;5053383;28;20205;-61
2024/01/12 02:55:51;;;;;;;47.63;18.77;;;1.10;99.90;;;;;;5053920;28;20201;-61
2024/01/12 02:58:18;;;;;;;39.20;17.73;;;1.10;99.90;;;;;;5053827;28;20220;-61
2024/01/12 03:00:45;;;;;;;34.30;16.83;;;1.10;99.90;;;;;;5053788;28;20213;-61
2024/01/12 03:03:12;;;;;;;38.95;18.33;;;1.10;99.90;;;;;;5054469;28;20251;-62
2024/01/12 03:05:38;;;;;;;44.25;20.13;;;1.10;99.90;;;;;;5053580;28;20208;-62
2024/01/12 03:08:06;;;;;;;37.85;18.77;;;1.10;99.90;;;;;;5053869;28;20193;-61
2024/01/12 03:10:32;;;;;;;39.75;18.90;;;1.10;99.90;;;;;;5053504;28;20251;-61
2024/01/12 03:13:01;;;;;;;44.40;16.33;;;1.10;99.90;;;;;;5053610;28;20231;-62
2024/01/12 03:15:27;;;;;;;41.58;18.42;;;1.10;99.90;;;;;;5053468;28;20198;-61
2024/01/12 03:17:54;;;;;;;36.92;16.95;;;1.10;99.90;;;;;;5053447;28;20198;-61
2024/01/12 03:20:21;;;;;;;46.53;17.13;;;1.10;99.90;;;;;;5053301;28;20208;-61
2024/01/12 03:22:47;;;;;;;47.45;18.40;;;1.10;99.90;;;;;;5053241;28;20218;-62
2024/01/12 03:25:14;;;;;;;42.53;19.00;;;1.00;99.90;;;;;;5053207;28;20202;-62
2024/01/12 03:27:41;;;;;;;42.33;18.13;;;1.10;99.90;;;;;;5053316;28;20213;-62
2024/01/12 03:30:11;;;;;;;40.72;17.38;;;1.10;99.90;;;;;;5053363;28;20202;-61
2024/01/12 03:32:37;;;;;;;35.88;15.07;;;1.10;99.90;;;;;;5053201;28;20222;-61
2024/01/12 03:35:05;;;;;;;38.95;15.50;;;1.10;99.90;;;;;;5053234;28;20205;-61
2024/01/12 03:37:32;;;;;;;40.42;17.27;;;1.00;99.90;;;;;;5053153;28;20206;-62
2024/01/12 03:39:58;;;;;;;34.63;17.70;;;1.00;99.90;;;;;;5052908;28;20228;-61
2024/01/12 03:42:25;;;;;;;41.78;19.05;;;1.00;99.90;;;;;;5053230;28;20568;-61
2024/01/12 03:44:52;;;;;;;26.45;12.77;;;1.00;99.90;;;;;;5053430;28;20288;-61
2024/01/12 03:47:20;;;;;;;46.97;19.00;;;1.00;99.90;;;;;;5053264;28;20201;-62
2024/01/12 03:49:47;;;;;;;32.40;16.10;;;1.00;99.90;;;;;;5053320;28;20292;-61
2024/01/12 03:52:14;;;;;;;29.65;16.17;;;1.00;99.90;;;;;;5053311;28;20221;-61
2024/01/12 03:54:41;;;;;;;39.90;18.13;;;1.00;99.90;;;;;;5053632;28;20202;-61
2024/01/12 03:57:07;;;;;;;40.00;16.95;;;1.00;99.90;;;;;;5054240;28;20202;-61
2024/01/12 03:59:34;;;;;;;31.13;15.40;;;1.00;99.90;;;;;;5054230;28;20225;-61
2024/01/12 04:02:01;;;;;;;34.47;14.57;;;1.00;99.90;;;;;;5054283;28;20230;-62
2024/01/12 04:04:29;;;;;;;35.53;15.75;;;1.00;99.90;;;;;;5054296;28;20202;-62
2024/01/12 04:06:56;;;;;;;36.70;15.80;;;1.00;99.90;;;;;;5054064;28;20208;-62
2024/01/12 04:09:23;;;;;;;36.25;16.35;;;1.00;99.90;;;;;;5056897;28;20208;-62
2024/01/12 04:12:58;;;;;;;37.20;17.05;;;1.00;99.90;;;;;;5095077;27;20564;-64
2024/01/12 04:15:24;;;;;;;37.58;17.92;;;1.00;99.90;;;;;;5096658;28;20204;-64
2024/01/12 04:17:51;;;;;;;35.05;17.70;;;1.00;99.90;;;;;;5096882;28;20214;-62
2024/01/12 04:20:18;;;;;;;43.65;18.08;;;1.00;99.90;;;;;;5095631;28;20210;-62
2024/01/12 04:22:45;;;;;;;37.13;16.63;;;1.00;99.90;;;;;;5090324;28;20223;-62
2024/01/12 04:25:12;;;;;;;43.30;16.52;;;1.00;99.90;;;;;;5091065;28;20215;-63
2024/01/12 04:27:38;;;;;;;37.45;15.88;;;1.00;99.90;;;;;;5090357;28;20212;-63
2024/01/12 04:30:09;;;;;;;32.58;16.25;;;1.00;99.90;;;;;;5090670;28;20541;-62
2024/01/12 04:32:35;;;;;;;38.15;17.67;;;1.00;99.90;;;;;;5090681;28;20228;-63
2024/01/12 04:35:02;;;;;;;35.78;15.68;;;1.00;99.90;;;;;;5090394;28;20576;-63
2024/01/12 04:37:29;;;;;;;32.03;15.13;;;1.00;99.90;;;;;;5090625;28;20291;-64
2024/01/12 04:39:56;;;;;;;32.30;15.57;;;0.90;99.90;;;;;;5090373;28;20200;-63
2024/01/12 04:42:22;;;;;;;43.92;17.05;;;0.90;99.90;;;;;;5090998;28;20216;-63
2024/01/12 04:44:49;;;;;;;32.42;15.50;;;0.90;99.90;;;;;;5090111;28;20204;-64
2024/01/12 04:47:17;;;;;;;32.67;15.00;;;0.90;99.90;;;;;;5090417;28;20207;-63
2024/01/12 04:49:44;;;;;;;36.70;17.48;;;0.90;99.90;;;;;;5089572;28;20723;-62
2024/01/12 04:52:11;;;;;;;22.50;11.82;;;0.90;99.90;;;;;;5089303;28;20604;-63
2024/01/12 04:54:38;;;;;;;34.58;15.95;;;0.90;99.90;;;;;;5089523;28;20688;-63
2024/01/12 04:57:05;;;;;;;28.70;13.05;;;0.90;99.90;;;;;;5089636;28;20556;-64
2024/01/12 04:59:32;;;;;;;39.60;16.30;;;0.90;99.90;;;;;;5089777;28;20204;-62
2024/01/12 05:01:58;;;;;;;33.65;15.63;;;0.90;99.90;;;;;;5102443;22;20234;-67
2024/01/12 05:04:26;;;;;;;34.05;15.23;;;0.90;99.90;;;;;;5050930;28;20205;-67
2024/01/12 05:06:53;;;;;;;37.53;17.25;;;0.90;99.90;;;;;;5050412;28;20210;-65
2024/01/12 05:09:20;;;;;;;28.63;11.90;;;0.90;99.90;;;;;;5049799;28;20672;-65
2024/01/12 05:11:47;;;;;;;30.80;14.85;;;0.90;99.90;;;;;;5054787;28;20226;-65
2024/01/12 05:14:12;;;;;;;32.80;14.93;;;0.90;99.90;;;;;;5055629;28;20201;-64
2024/01/12 05:16:39;;;;;;;34.83;16.30;;;0.90;99.90;;;;;;5050803;28;20198;-65
2024/01/12 05:19:06;;;;;;;32.55;16.80;;;0.90;99.90;;;;;;5050033;28;20573;-66
2024/01/12 05:21:34;;;;;;;32.50;14.10;;;0.90;99.90;;;;;;5050843;28;20222;-66
2024/01/12 05:24:01;;;;;;;32.50;14.85;;;0.80;99.90;;;;;;5038154;28;20695;-66
2024/01/12 05:26:28;;;;;;;28.02;14.25;;;0.90;99.90;;;;;;5037300;28;20671;-66
2024/01/12 05:28:54;;;;;;;30.17;16.20;;;0.80;99.90;;;;;;5036616;28;20681;-66
2024/01/12 05:31:21;;;;;;;34.03;15.13;;;0.80;99.90;;;;;;5039023;28;20680;-66
2024/01/12 05:33:48;;;;;;;27.58;15.25;;;0.90;99.90;;;;;;5043261;28;20581;-66
2024/01/12 05:36:15;;;;;;;39.40;17.88;;;0.90;99.90;;;;;;5039142;28;20569;-67
2024/01/12 05:38:43;;;;;;;34.25;15.68;;;0.90;99.90;;;;;;5039555;28;20736;-66
2024/01/12 05:41:10;;;;;;;37.10;16.23;;;0.90;99.90;;;;;;5037952;28;20619;-66
2024/01/12 05:43:37;;;;;;;27.60;13.85;;;0.80;99.90;;;;;;5036700;28;20698;-67
2024/01/12 05:46:05;;;;;;;31.80;14.82;;;0.80;99.90;;;;;;5036503;28;20208;-66
2024/01/12 05:48:32;;;;;;;32.65;15.10;;;0.80;99.90;;;;;;5036606;28;20210;-66
2024/01/12 05:50:58;;;;;;;29.65;14.10;;;0.80;99.90;;;;;;5036108;28;20209;-66
2024/01/12 05:53:25;;;;;;;32.47;14.82;;;0.80;99.90;;;;;;5036379;28;20203;-66
2024/01/12 05:55:54;;;;;;;33.38;14.25;;;0.80;99.90;;;;;;5036070;28;20636;-67
2024/01/12 05:58:20;;;;;;;29.92;14.18;;;0.70;99.90;;;;;;5035897;28;20270;-66
2024/01/12 06:00:48;;;;;;;28.85;14.20;;;0.80;99.90;;;;;;5036875;28;20208;-66
2024/01/12 06:03:14;;;;;;;32.50;13.95;;;0.80;99.90;;;;;;5035851;28;20206;-66
2024/01/12 06:05:41;;;;;;;29.80;14.02;;;0.80;99.90;;;;;;5037107;28;20204;-66
2024/01/12 06:08:08;;;;;;;29.65;15.05;;;0.80;99.90;;;;;;5036011;28;20205;-66
2024/01/12 06:10:35;;;;;;;31.13;16.67;;;0.80;99.90;;;;;;5036325;28;20213;-65
2024/01/12 06:13:04;;;;;;;26.60;12.75;;;0.80;99.90;;;;;;5036214;28;20237;-66
2024/01/12 06:15:31;;;;;;;30.52;14.07;;;0.80;99.90;;;;;;5036324;28;20551;-67
2024/01/12 06:17:59;;;;;;;29.13;13.98;;;0.80;99.90;;;;;;5036478;28;20214;-67
2024/01/12 06:20:26;;;;;;;23.73;11.63;;;0.80;99.90;;;;;;5036087;28;20289;-65
2024/01/12 06:22:53;;;;;;;26.52;13.10;;;0.80;99.90;;;;;;5036360;28;20227;-66
2024/01/12 06:25:19;;;;;;;30.58;12.65;;;0.80;99.90;;;;;;5035947;28;20203;-66
2024/01/12 06:27:46;;;;;;;21.95;12.70;;;0.80;99.90;;;;;;5036124;28;20296;-66
2024/01/12 06:30:15;;;;;;;22.05;12.30;;;0.80;99.90;;;;;;5036166;28;20207;-65
2024/01/12 06:32:42;;;;;;;22.98;12.50;;;0.80;99.90;;;;;;5035992;28;20603;-65
2024/01/12 06:35:10;;;;;;;25.17;11.82;;;0.80;99.90;;;;;;5035673;28;20209;-67
2024/01/12 06:37:37;;;;;;;26.48;13.90;;;0.80;99.90;;;;;;5035820;28;20206;-66
2024/01/12 06:40:04;;;;;;;24.88;13.48;;;0.80;99.90;;;;;;5036813;28;20293;-66
2024/01/12 06:42:32;;;;;;;22.65;12.30;;;0.80;99.90;;;;;;5036860;28;20579;-66
2024/01/12 06:44:59;;;;;;;23.95;11.68;;;0.80;99.90;;;;;;5037039;28;20661;-65
2024/01/12 06:47:28;;;;;;;21.50;12.82;;;0.80;99.90;;;;;;5035708;28;20664;-66
2024/01/12 06:49:55;;;;;;;33.90;15.57;;;0.80;99.90;;;;;;5035951;28;20202;-65
2024/01/12 06:52:22;;;;;;;24.27;13.02;;;0.80;99.90;;;;;;5036210;28;20595;-67
2024/01/12 06:54:48;;;;;;;27.58;11.68;;;0.80;99.90;;;;;;5035751;28;20274;-66
2024/01/12 06:57:15;;;;;;;26.23;13.60;;;0.80;99.90;;;;;;5036675;28;20198;-67
2024/01/12 06:59:42;;;;;;;24.83;12.35;;;0.90;99.90;;;;;;5036264;28;20198;-66
2024/01/12 07:02:10;;;;;;;30.67;14.25;;;0.80;99.90;;;;;;5035989;28;20238;-65
2024/01/12 07:04:38;;;;;;;30.27;14.07;;;0.90;99.90;;;;;;5035867;28;20198;-65
2024/01/12 07:07:05;;;;;;;28.42;13.43;;;0.90;99.90;;;;;;5035821;28;20206;-66
2024/01/12 07:09:32;;;;;;;27.58;13.75;;;0.80;99.90;;;;;;5035613;28;20297;-65
2024/01/12 07:11:59;;;;;;;34.97;13.30;;;0.80;99.90;;;;;;5035360;28;20633;-67
2024/01/12 07:14:25;;;;;;;21.88;12.77;;;0.80;99.90;;;;;;5034959;28;20207;-67
2024/01/12 07:20:28;;;;;;;30.35;15.77;;;0.80;99.90;;;;;;5036183;28;20589;-67
2024/01/12 07:22:54;;;;;;;27.27;13.00;;;0.80;99.90;;;;;;5037210;28;20223;-66
2024/01/12 07:25:21;;;;;;;31.50;14.45;;;0.80;99.90;;;;;;5045002;28;20217;-67
2024/01/12 07:27:48;;;;;;;28.17;14.85;;;0.80;99.90;;;;;;5042543;28;20225;-67
2024/01/12 07:30:16;;;;;;;25.80;13.10;;;0.80;99.90;;;;;;5038803;28;20209;-67
2024/01/12 07:32:43;;;;;;;28.88;13.93;;;0.70;99.90;;;;;;5037953;28;20697;-67
2024/01/12 07:35:11;;;;;;;23.50;12.68;;;0.70;99.90;;;;;;5037852;28;20208;-67
2024/01/12 07:37:39;;;;;;;27.83;14.95;;;0.70;99.90;;;;;;5036269;28;20206;-66
2024/01/12 07:40:07;;;;;;;29.60;14.27;;;0.70;99.90;;;;;;5036623;28;20202;-66
2024/01/12 07:42:35;;;;;;;24.52;13.52;;;0.70;99.90;;;;;;5036444;28;20287;-66
2024/01/12 07:45:01;;;;;;;21.50;13.00;;;0.70;99.90;;;;;;5037268;28;20202;-66
2024/01/12 07:47:28;;;;;;;20.63;12.15;;;0.70;99.90;;;;;;5035953;28;20687;-67
2024/01/12 07:49:55;;;;;;;25.10;13.27;;;0.70;99.90;;;;;;5037290;28;20214;-67
2024/01/12 07:52:21;;;;;;;25.67;13.52;;;0.70;99.90;;;;;;5037168;28;20225;-67
2024/01/12 07:54:49;;;;;;;27.42;13.15;;;0.80;99.90;;;;;;5041513;28;20683;-67
2024/01/12 07:57:16;;;;;;;30.50;14.88;;;0.80;99.90;;;;;;5045921;28;20202;-67
2024/01/12 07:59:43;;;;;;;26.48;12.70;;;0.80;99.90;;;;;;5043486;28;20206;-67
2024/01/12 08:02:10;;;;;;;27.20;15.20;;;0.80;99.90;;;;;;5040109;28;20233;-67
2024/01/12 08:04:38;;;;;;;29.92;13.20;;;0.80;99.90;;;;;;5037833;28;20206;-66
2024/01/12 08:07:06;;;;;;;29.13;12.70;;;0.80;99.90;;;;;;5038713;28;20214;-68
2024/01/12 08:09:33;;;;;;;29.02;13.77;;;0.80;99.90;;;;;;5041314;28;20320;-67
2024/01/12 08:12:02;;;;;;;31.25;14.80;;;0.80;99.90;;;;;;5040663;28;20222;-66
2024/01/12 08:14:29;;;;;;;29.98;15.27;;;0.80;99.90;;;;;;5038850;28;20249;-67
2024/01/12 08:16:55;;;;;;;24.80;13.32;;;0.90;99.90;;;;;;5038658;28;20209;-66
2024/01/12 08:19:22;;;;;;;27.70;13.45;;;0.90;99.90;;;;;;5038782;28;20204;-67
2024/01/12 08:21:49;;;;;;;29.90;15.43;;;0.90;99.90;;;;;;5040337;28;20285;-66
2024/01/12 08:24:15;;;;;;;20.95;12.45;;;0.90;99.90;;;;;;5039750;28;20242;-67
2024/01/12 08:26:42;;;;;;;25.63;13.35;;;0.90;99.90;;;;;;5039385;28;20209;-67
2024/01/12 08:29:10;;;;;;;25.67;13.90;;;0.90;99.90;;;;;;5039396;28;20220;-67
2024/01/12 08:31:37;;;;;;;20.17;11.38;;;0.90;99.90;;;;;;5040853;28;20567;-67
2024/01/12 08:34:04;;;;;;;23.63;13.30;;;0.90;99.90;;;;;;5041741;28;20226;-66
2024/01/12 08:36:30;;;;;;;27.80;14.57;;;0.90;99.90;;;;;;5042239;28;20208;-66
2024/01/12 08:38:57;;;;;;;30.48;14.48;;;0.90;99.90;;;;;;5041989;28;20233;-66
2024/01/12 08:41:24;;;;;;;22.30;13.88;;;0.90;99.90;;;;;;5038765;28;20335;-67
2024/01/12 08:43:52;;;;;;;26.30;14.38;;;0.90;99.90;;;;;;5037754;28;20195;-68
2024/01/12 08:46:21;;;;;;;20.70;13.27;;;0.90;99.90;;;;;;5038172;28;20256;-67
2024/01/12 08:48:48;;;;;;;27.20;11.10;;;0.90;99.90;;;;;;5036674;28;20688;-66
2024/01/12 08:51:15;;;;;;;27.70;13.40;;;0.90;99.90;;;;;;5037777;28;20226;-66
2024/01/12 08:53:42;;;;;;;18.80;12.38;;;0.90;99.90;;;;;;5038466;28;20217;-68
2024/01/12 08:56:09;;;;;;;25.92;12.07;;;0.90;99.90;;;;;;5037385;28;20198;-67
2024/01/12 08:58:37;;;;;;;26.23;13.63;;;0.90;99.90;;;;;;5040394;28;20209;-67
2024/01/12 09:01:04;;;;;;;18.10;11.75;;;1.00;99.90;;;;;;5047111;28;20230;-67
2024/01/12 09:03:32;;;;;;;23.10;11.73;;;0.90;99.90;;;;;;5047424;28;20193;-67
2024/01/12 09:05:59;;;;;;;21.45;13.85;;;1.00;99.90;;;;;;5047316;28;20217;-66
2024/01/12 09:08:26;;;;;;;27.08;14.02;;;1.00;99.90;;;;;;5048424;28;20202;-67
2024/01/12 09:10:53;;;;;;;19.55;11.90;;;1.00;99.90;;;;;;5048363;28;20289;-67
2024/01/12 09:13:19;;;;;;;25.30;13.23;;;1.00;99.90;;;;;;5049730;28;20218;-67
2024/01/12 09:15:46;;;;;;;24.00;12.60;;;1.00;99.90;;;;;;5049105;28;20202;-66
2024/01/12 09:18:13;;;;;;;22.77;11.38;;;1.00;99.90;;;;;;5050507;28;20205;-67
2024/01/12 09:20:41;;;;;;;27.95;13.55;;;1.10;99.90;;;;;;5048950;28;20208;-67
2024/01/12 09:23:08;;;;;;;23.27;13.63;;;1.10;99.90;;;;;;5049558;28;20234;-67
2024/01/12 09:25:35;;;;;;;20.75;11.63;;;1.20;99.90;;;;;;5050985;28;20202;-67
2024/01/12 09:28:02;;;;;;;19.92;12.27;;;1.20;99.90;;;;;;5050043;28;20305;-67
2024/01/12 09:30:28;;;;;;;16.40;10.45;;;1.20;99.90;;;;;;5046630;28;20202;-67
2024/01/12 09:32:55;;;;;;;24.33;12.90;;;1.20;99.90;;;;;;5044869;28;20237;-68
2024/01/12 09:35:22;;;;;;;17.55;11.05;;;1.30;99.90;;;;;;5046873;28;20295;-68
2024/01/12 09:37:50;;;;;;;17.63;10.77;;;1.30;99.90;;;;;;5050149;28;20667;-68
2024/01/12 09:40:17;;;;;;;20.80;11.23;;;1.30;99.90;;;;;;5048582;28;20213;-67
2024/01/12 09:42:47;;;;;;;19.95;10.82;;;1.30;99.90;;;;;;5051475;28;20230;-69
2024/01/12 09:45:14;;;;;;;17.00;10.68;;;1.40;99.90;;;;;;5050944;28;20212;-68
2024/01/12 09:47:42;;;;;;;18.75;11.48;;;1.40;99.90;;;;;;5051380;28;20224;-68
2024/01/12 09:50:10;;;;;;;19.70;8.75;;;1.40;99.90;;;;;;5051030;28;20208;-67
2024/01/12 09:52:37;;;;;;;17.70;11.50;;;1.40;99.90;;;;;;5051146;28;20245;-67
2024/01/12 09:55:07;;;;;;;21.92;12.43;;;1.40;99.90;;;;;;5051696;28;20601;-67
2024/01/12 09:57:34;;;;;;;21.55;9.95;;;1.40;99.90;;;;;;5051555;28;20197;-68
2024/01/12 10:00:05;;;;;;;17.00;11.10;;;1.50;99.90;;;;;;5051774;28;20198;-68
2024/01/12 10:02:31;;;;;;;18.42;11.15;;;1.50;99.90;;;;;;5052498;28;20260;-69
2024/01/12 10:04:58;;;;;;;17.13;11.93;;;1.50;99.90;;;;;;5051395;28;20202;-67
2024/01/12 10:07:25;;;;;;;17.30;10.82;;;1.50;99.90;;;;;;5051888;28;20211;-69
2024/01/12 10:09:52;;;;;;;21.27;11.15;;;1.50;99.90;;;;;;5048664;28;20206;-68
2024/01/12 10:12:20;;;;;;;18.20;10.38;;;1.50;99.90;;;;;;5047668;28;20313;-68
2024/01/12 10:14:46;;;;;;;15.88;10.25;;;1.50;99.90;;;;;;5049533;28;20210;-68
2024/01/12 10:17:14;;;;;;;17.63;11.10;;;1.50;99.90;;;;;;5047350;28;20553;-69
2024/01/12 10:19:42;;;;;;;22.40;12.15;;;1.50;99.90;;;;;;5047286;28;20207;-69
2024/01/12 10:22:13;;;;;;;21.05;10.32;;;1.60;99.90;;;;;;5048108;28;20253;-68
2024/01/12 10:24:40;;;;;;;16.65;10.45;;;1.60;99.90;;;;;;5049621;28;20203;-70
2024/01/12 10:27:07;;;;;;;17.77;12.10;;;1.60;99.90;;;;;;5049086;28;20199;-68
2024/01/12 10:29:38;;;;;;;17.40;11.90;;;1.60;99.90;;;;;;5046893;28;20203;-68
2024/01/12 10:32:06;;;;;;;16.85;10.55;;;1.60;99.90;;;;;;5039786;28;20260;-69
2024/01/12 10:34:34;;;;;;;18.10;10.77;;;1.70;99.90;;;;;;5037916;28;20314;-68
2024/01/12 10:37:02;;;;;;;13.02;10.40;;;1.70;99.90;;;;;;5038105;28;20668;-68
2024/01/12 10:39:35;;;;;;;18.63;11.32;;;1.70;99.90;;;;;;5039019;28;20205;-68
2024/01/12 10:42:06;;;;;;;17.08;10.70;;;1.80;99.90;;;;;;5038388;28;20314;-69
2024/01/12 10:44:34;;;;;;;26.30;12.55;;;1.90;99.90;;;;;;5037995;28;20187;-68
2024/01/12 10:47:05;;;;;;;20.52;10.48;;;1.90;99.90;;;;;;5038031;28;20575;-68
2024/01/12 10:49:37;;;;;;;15.20;10.18;;;2.00;99.90;;;;;;5037617;28;20638;-67
2024/01/12 10:52:09;;;;;;;17.17;11.63;;;2.00;99.90;;;;;;5038437;28;20244;-68
2024/01/12 10:54:50;;;;;;;17.25;11.43;;;2.00;99.90;;;;;;5039160;28;20264;-69
2024/01/12 10:57:17;;;;;;;20.23;11.88;;;2.00;99.90;;;;;;5039270;28;20659;-67
2024/01/12 10:59:45;;;;;;;14.63;10.10;;;2.10;99.90;;;;;;5039484;28;20210;-68
2024/01/12 11:02:15;;;;;;;17.25;9.88;;;2.20;99.90;;;;;;5043019;28;20230;-69
2024/01/12 11:04:42;;;;;;;15.70;11.00;;;2.30;99.90;;;;;;5045756;28;20198;-69
2024/01/12 11:07:11;;;;;;;17.48;10.50;;;2.30;99.90;;;;;;5041322;28;20614;-67
2024/01/12 11:09:37;;;;;;;23.08;11.75;;;2.30;99.90;;;;;;5038008;28;20206;-67
2024/01/12 11:12:07;;;;;;;23.67;12.27;;;2.30;99.90;;;;;;5037198;28;20313;-68
2024/01/12 11:14:35;;;;;;;20.20;12.57;;;2.30;99.90;;;;;;5036718;28;20272;-68
2024/01/12 11:17:02;;;;;;;18.38;12.18;;;2.30;99.90;;;;;;5037043;28;20225;-69
2024/01/12 11:19:30;;;;;;;18.58;12.27;;;2.20;99.90;;;;;;5037278;28;20202;-67
2024/01/12 11:22:06;;;;;;;22.40;12.40;;;2.20;99.90;;;;;;5037309;28;20233;-69
2024/01/12 11:24:33;;;;;;;19.52;12.30;;;2.30;99.90;;;;;;5037957;28;20633;-67
2024/01/12 11:27:00;;;;;;;22.30;12.75;;;2.30;99.90;;;;;;5038242;28;20723;-66
2024/01/12 11:29:30;;;;;;;22.08;12.93;;;2.30;99.90;;;;;;5037658;28;20561;-69
2024/01/12 11:32:01;;;;;;;24.10;14.32;;;2.30;99.90;;;;;;5039767;28;20280;-68
2024/01/12 11:34:33;;;;;;;29.10;11.98;;;2.40;99.90;;;;;;5041236;28;20211;-70
2024/01/12 11:37:01;;;;;;;21.42;12.30;;;2.50;99.90;;;;;;5039715;28;20194;-69
2024/01/12 11:39:33;;;;;;;20.92;13.10;;;2.60;99.90;;;;;;5037890;28;20198;-70
2024/01/12 11:42:02;;;;;;;18.30;12.25;;;2.70;99.90;;;;;;5036088;28;20276;-72
2024/01/12 11:44:29;;;;;;;17.38;12.07;;;2.80;99.90;;;;;;5037229;28;20210;-75
2024/01/12 11:46:56;;;;;;;19.55;11.63;;;2.90;99.90;;;;;;5037696;28;20210;-71
2024/01/12 11:49:24;;;;;;;25.63;12.95;;;3.00;99.90;;;;;;5036509;28;20206;-69
2024/01/12 11:52:00;;;;;;;22.75;13.13;;;3.00;99.90;;;;;;5035707;28;20327;-68
2024/01/12 11:54:27;;;;;;;20.17;10.27;;;3.10;99.90;;;;;;5036311;28;20646;-69
2024/01/12 11:56:55;;;;;;;16.73;9.98;;;3.10;99.90;;;;;;5036099;28;20647;-68
2024/01/12 11:59:22;;;;;;;13.32;9.13;;;3.10;99.90;;;;;;5037251;28;20748;-68
2024/01/12 12:01:49;;;;;;;13.75;10.38;;;3.10;99.90;;;;;;5039766;28;20230;-69
2024/01/12 12:04:17;;;;;;;15.50;10.50;;;3.00;99.90;;;;;;5040923;28;20206;-69
2024/01/12 12:06:45;;;;;;;17.65;10.75;;;3.00;99.90;;;;;;5041072;28;20268;-69
2024/01/12 12:09:13;;;;;;;18.00;10.25;;;3.00;99.90;;;;;;5040244;28;20202;-68
2024/01/12 12:11:40;;;;;;;16.80;10.27;;;3.00;99.90;;;;;;5039142;28;20224;-67
2024/01/12 12:14:07;;;;;;;18.27;9.93;;;2.90;99.90;;;;;;5038875;28;20218;-68
2024/01/12 12:16:35;;;;;;;16.77;11.30;;;2.80;99.90;;;;;;5037616;28;20199;-67
2024/01/12 12:19:02;;;;;;;14.98;11.10;;;2.80;99.90;;;;;;5035281;28;20213;-67
2024/01/12 12:21:29;;;;;;;17.50;11.65;;;2.70;99.90;;;;;;5035867;28;20248;-67
2024/01/12 12:23:56;;;;;;;18.70;11.65;;;2.60;99.90;;;;;;5035946;28;20198;-67
2024/01/12 12:26:25;;;;;;;18.17;10.88;;;2.50;99.90;;;;;;5035701;28;20710;-66
2024/01/12 12:28:55;;;;;;;16.00;10.63;;;2.50;99.90;;;;;;5035534;28;20212;-67
2024/01/12 12:31:22;;;;;;;18.13;11.85;;;2.40;99.90;;;;;;5035265;28;20730;-67
2024/01/12 12:33:49;;;;;;;17.52;9.90;;;2.40;99.90;;;;;;5037536;28;20218;-67
2024/01/12 12:36:17;;;;;;;17.38;10.55;;;2.40;99.90;;;;;;5041641;28;20198;-67
2024/01/12 12:38:44;;;;;;;17.58;10.40;;;2.40;99.90;;;;;;5039316;28;20208;-67
2024/01/12 12:41:11;;;;;;;14.25;9.70;;;2.40;99.90;;;;;;5038789;28;20576;-67
2024/01/12 12:43:40;;;;;;;17.35;10.40;;;2.30;99.90;;;;;;5039580;28;20204;-68